Time;durP1;ratioP1;P1;durP2;ratioP2;P2;SDS_P1;SDS_P2;PMS_P1;PMS_P2;Temp;Humidity;BMP_temperature;BMP_pressure;BME280_temperature;BME280_humidity;BME280_pressure;Samples;Min_cycle;Max_cycle;Signal;HPM_P1;HPM_P2
2022/04/06 00:00:53;;;;;;;50.42;25.92;;;9.60;99.90;;;;;;5045846;28;20039;-79
2022/04/06 00:03:19;;;;;;;40.25;22.25;;;9.70;99.90;;;;;;5027328;28;20047;-80
2022/04/06 00:05:45;;;;;;;38.72;21.23;;;9.60;99.90;;;;;;4998898;28;20033;-79
2022/04/06 00:08:12;;;;;;;36.00;20.38;;;9.60;99.90;;;;;;5030061;28;20043;-79
2022/04/06 00:10:38;;;;;;;29.83;17.63;;;9.60;99.90;;;;;;5010233;28;20044;-79
2022/04/06 00:13:05;;;;;;;38.35;19.15;;;9.70;99.90;;;;;;5030115;28;20036;-76
2022/04/06 00:15:31;;;;;;;35.13;18.33;;;9.60;99.90;;;;;;5026532;28;20016;-76
2022/04/06 00:17:57;;;;;;;30.10;17.25;;;9.60;99.90;;;;;;5034815;28;20036;-76
2022/04/06 00:20:27;;;;;;;38.30;18.67;;;9.60;99.90;;;;;;5006693;28;20033;-76
2022/04/06 00:22:53;;;;;;;31.80;17.63;;;9.60;99.90;;;;;;5008407;28;20055;-76
2022/04/06 00:25:21;;;;;;;31.15;16.67;;;9.60;99.90;;;;;;5060571;28;20024;-76
2022/04/06 00:27:47;;;;;;;31.73;16.88;;;9.60;99.90;;;;;;5028497;28;20047;-76
2022/04/06 00:30:15;;;;;;;32.40;16.73;;;9.60;99.90;;;;;;5003928;28;20037;-76
2022/04/06 00:32:42;;;;;;;37.80;17.77;;;9.60;99.90;;;;;;5041162;28;20033;-76
2022/04/06 00:38:06;;;;;;;41.72;16.13;;;9.60;99.90;;;;;;5036736;28;21495;-76
2022/04/06 00:40:34;;;;;;;31.17;16.17;;;9.60;99.90;;;;;;5020380;28;20033;-76
2022/04/06 00:43:10;;;;;;;37.05;16.15;;;9.60;99.90;;;;;;5013422;28;20371;-76
2022/04/06 00:45:38;;;;;;;32.92;15.00;;;9.60;99.90;;;;;;5021501;28;20040;-76
2022/04/06 00:48:05;;;;;;;22.45;13.20;;;9.60;99.90;;;;;;5017303;28;20372;-76
2022/04/06 00:50:32;;;;;;;29.90;12.70;;;9.50;99.90;;;;;;5026709;28;20036;-76
2022/04/06 00:52:59;;;;;;;26.33;13.93;;;9.60;99.90;;;;;;5054251;28;20023;-76
2022/04/06 00:55:33;;;;;;;26.38;14.05;;;9.60;99.90;;;;;;5049904;28;20044;-76
2022/04/06 00:58:01;;;;;;;33.55;14.63;;;9.60;99.90;;;;;;5057288;28;20025;-76
2022/04/06 01:00:31;;;;;;;31.10;15.27;;;9.70;99.90;;;;;;5003319;28;20034;-76
2022/04/06 01:02:59;;;;;;;30.35;14.80;;;9.60;99.90;;;;;;5024203;28;20028;-76
2022/04/06 01:05:25;;;;;;;29.23;15.10;;;9.60;99.90;;;;;;5026960;28;20040;-76
2022/04/06 01:07:54;;;;;;;29.63;13.95;;;9.60;99.90;;;;;;5011166;28;20039;-75
2022/04/06 01:10:21;;;;;;;35.70;15.88;;;9.60;99.90;;;;;;5028911;28;20032;-76
2022/04/06 01:12:49;;;;;;;27.55;14.77;;;9.60;99.90;;;;;;5011097;28;20039;-76
2022/04/06 01:15:16;;;;;;;31.50;15.35;;;9.60;99.90;;;;;;5015212;28;20025;-76
2022/04/06 01:17:43;;;;;;;30.80;14.90;;;9.60;99.90;;;;;;5016648;28;20020;-76
2022/04/06 01:20:11;;;;;;;31.23;15.52;;;9.60;99.90;;;;;;5010270;28;20029;-76
2022/04/06 01:22:38;;;;;;;38.63;17.70;;;9.60;99.90;;;;;;5023665;28;20039;-76
2022/04/06 01:25:06;;;;;;;35.55;16.92;;;9.60;99.90;;;;;;5023771;28;20036;-76
2022/04/06 01:27:33;;;;;;;31.20;17.08;;;9.60;99.90;;;;;;5024195;28;20032;-76
2022/04/06 01:29:59;;;;;;;34.63;17.10;;;9.50;99.90;;;;;;5027288;28;20546;-76
2022/04/06 01:32:32;;;;;;;32.55;16.38;;;9.50;99.90;;;;;;5008726;28;20028;-76
2022/04/06 01:34:59;;;;;;;37.83;17.70;;;9.50;99.90;;;;;;5040592;28;20020;-76
2022/04/06 01:37:26;;;;;;;34.72;16.02;;;9.50;99.90;;;;;;5028593;28;20036;-75
2022/04/06 01:39:53;;;;;;;33.72;16.50;;;9.50;99.90;;;;;;5024107;28;20047;-76
2022/04/06 01:42:20;;;;;;;31.05;16.20;;;9.50;99.90;;;;;;5009973;28;20029;-76
2022/04/06 01:44:48;;;;;;;30.48;15.77;;;9.50;99.90;;;;;;5023273;28;21306;-76
2022/04/06 01:47:16;;;;;;;32.85;14.20;;;9.50;99.90;;;;;;5042952;28;20038;-80
2022/04/06 01:52:28;;;;;;;26.58;15.00;;;9.50;99.90;;;;;;5030193;28;20380;-79
2022/04/06 01:55:00;;;;;;;35.85;14.85;;;9.50;99.90;;;;;;5014834;28;20560;-79
2022/04/06 01:57:28;;;;;;;30.83;14.13;;;9.50;99.90;;;;;;5057978;28;20081;-79
2022/04/06 01:59:55;;;;;;;29.38;13.15;;;9.50;99.90;;;;;;5013952;28;20483;-79
2022/04/06 02:02:23;;;;;;;27.73;13.48;;;9.50;99.90;;;;;;5044547;28;20017;-79
2022/04/06 02:04:50;;;;;;;33.60;13.38;;;9.50;99.90;;;;;;5047258;28;20056;-79
2022/04/06 02:07:17;;;;;;;24.67;13.05;;;9.50;99.90;;;;;;5029148;28;20029;-79
2022/04/06 02:09:45;;;;;;;31.67;11.70;;;9.50;99.90;;;;;;4996692;28;20481;-79
2022/04/06 02:12:12;;;;;;;30.75;11.57;;;9.50;99.90;;;;;;5054873;28;20044;-79
2022/04/06 02:14:41;;;;;;;32.22;12.20;;;9.50;99.90;;;;;;5045617;28;20056;-80
2022/04/06 02:17:08;;;;;;;25.80;9.95;;;9.50;99.90;;;;;;5030806;28;20032;-79
2022/04/06 02:19:56;;;;;;;23.85;11.18;;;9.50;99.90;;;;;;5015290;28;20036;-80
2022/04/06 02:22:23;;;;;;;26.55;10.65;;;9.50;99.90;;;;;;5031738;28;20045;-79
2022/04/06 02:24:50;;;;;;;19.35;10.32;;;9.50;99.90;;;;;;5030309;28;20055;-80
2022/04/06 02:27:17;;;;;;;26.23;11.45;;;9.40;99.90;;;;;;5045845;28;20028;-79
2022/04/06 02:29:46;;;;;;;30.90;11.05;;;9.40;99.90;;;;;;5028274;28;20035;-79
2022/04/06 02:32:12;;;;;;;28.30;9.88;;;9.40;99.90;;;;;;5011190;28;20037;-79
2022/04/06 02:34:42;;;;;;;29.25;10.50;;;9.40;99.90;;;;;;5027224;28;20028;-79
2022/04/06 02:37:10;;;;;;;23.63;9.65;;;9.40;99.90;;;;;;5061162;28;20052;-80
2022/04/06 02:39:36;;;;;;;23.90;10.40;;;9.40;99.90;;;;;;5029636;28;20036;-80
2022/04/06 02:42:03;;;;;;;19.58;9.38;;;9.40;99.90;;;;;;5012244;28;20497;-80
2022/04/06 02:44:30;;;;;;;25.48;9.85;;;9.40;99.90;;;;;;5026201;28;20055;-79
2022/04/06 02:46:57;;;;;;;29.17;9.82;;;9.40;99.90;;;;;;5044715;28;20028;-79
2022/04/06 02:49:23;;;;;;;28.23;8.93;;;9.40;99.90;;;;;;5044508;28;20032;-79
2022/04/06 02:51:50;;;;;;;23.45;8.63;;;9.30;99.90;;;;;;5012848;28;20036;-79
2022/04/06 02:54:17;;;;;;;24.25;8.73;;;9.30;99.90;;;;;;5057015;28;20501;-79
2022/04/06 02:56:43;;;;;;;22.00;8.70;;;9.30;99.90;;;;;;5029010;28;20047;-79
2022/04/06 02:59:10;;;;;;;22.00;9.75;;;9.30;99.90;;;;;;5033039;28;20039;-79
2022/04/06 03:01:36;;;;;;;21.33;8.57;;;9.30;99.90;;;;;;5048610;28;20371;-79
2022/04/06 03:04:03;;;;;;;24.80;7.85;;;9.30;99.90;;;;;;5048630;28;20028;-80
2022/04/06 03:06:29;;;;;;;19.05;7.30;;;9.30;99.90;;;;;;5032549;28;20032;-79
2022/04/06 03:08:56;;;;;;;19.77;7.75;;;9.30;99.90;;;;;;5051091;28;20040;-79
2022/04/06 03:11:22;;;;;;;18.25;7.53;;;9.30;99.90;;;;;;5036353;28;20044;-79
2022/04/06 03:13:50;;;;;;;25.58;7.75;;;9.30;99.90;;;;;;5065482;28;20059;-80
2022/04/06 03:16:17;;;;;;;23.25;7.25;;;9.20;99.90;;;;;;5033981;28;20032;-79
2022/04/06 03:18:44;;;;;;;15.85;6.50;;;9.20;99.90;;;;;;5050995;28;20036;-79
2022/04/06 03:21:10;;;;;;;17.70;7.50;;;9.20;99.90;;;;;;5049030;28;20044;-80
2022/04/06 03:23:37;;;;;;;26.75;8.52;;;9.20;99.90;;;;;;5064663;28;20052;-79
2022/04/06 03:26:03;;;;;;;25.02;7.47;;;9.20;99.90;;;;;;5050772;28;20039;-79
2022/04/06 03:28:30;;;;;;;17.90;6.45;;;9.20;99.90;;;;;;5006162;28;20032;-79
2022/04/06 03:30:56;;;;;;;13.43;5.95;;;9.20;99.90;;;;;;5015941;28;20040;-79
2022/04/06 03:33:22;;;;;;;19.50;5.75;;;9.10;99.90;;;;;;5047279;28;20043;-80
2022/04/06 03:35:49;;;;;;;15.88;5.78;;;9.10;99.90;;;;;;5047734;28;20036;-79
2022/04/06 03:38:16;;;;;;;20.65;5.32;;;9.10;99.90;;;;;;5067419;28;20036;-80
2022/04/06 03:40:42;;;;;;;20.92;5.93;;;9.10;99.90;;;;;;5034323;28;22098;-80
2022/04/06 03:43:09;;;;;;;14.70;5.50;;;9.10;99.90;;;;;;5064818;28;20685;-80
2022/04/06 03:45:35;;;;;;;19.95;5.20;;;9.10;99.90;;;;;;5032300;28;20467;-80
2022/04/06 03:48:02;;;;;;;12.82;4.68;;;9.00;99.90;;;;;;5049613;28;20021;-79
2022/04/06 03:50:28;;;;;;;8.90;4.45;;;9.00;99.90;;;;;;5050763;28;20040;-79
2022/04/06 03:52:55;;;;;;;12.73;3.67;;;9.00;99.90;;;;;;5033326;28;20031;-80
2022/04/06 03:55:22;;;;;;;14.52;4.28;;;9.00;99.90;;;;;;5014523;28;20050;-79
2022/04/06 03:57:48;;;;;;;11.00;3.83;;;8.90;99.90;;;;;;5046628;28;20047;-79
2022/04/06 04:00:16;;;;;;;18.45;4.47;;;8.90;99.90;;;;;;5063431;28;20490;-76
2022/04/06 04:02:42;;;;;;;14.90;3.95;;;8.90;99.90;;;;;;5032474;28;20036;-75
2022/04/06 04:05:09;;;;;;;13.68;3.47;;;8.80;99.90;;;;;;5042280;28;20055;-76
2022/04/06 04:07:39;;;;;;;12.95;3.55;;;8.80;99.90;;;;;;5047291;28;20475;-75
2022/04/06 04:10:08;;;;;;;20.50;6.80;;;8.70;99.90;;;;;;5048295;28;20035;-76
2022/04/06 04:12:35;;;;;;;14.48;3.55;;;8.70;99.90;;;;;;5061938;28;20039;-75
2022/04/06 04:15:02;;;;;;;13.05;4.30;;;8.70;99.90;;;;;;5045962;28;20039;-75
2022/04/06 04:17:28;;;;;;;8.02;2.95;;;8.70;99.90;;;;;;5032508;28;20102;-75
2022/04/06 04:19:58;;;;;;;13.27;3.53;;;8.80;99.90;;;;;;5033974;28;20028;-75
2022/04/06 04:22:24;;;;;;;14.60;3.97;;;8.80;99.90;;;;;;5079368;28;20051;-76
2022/04/06 04:24:53;;;;;;;9.45;2.40;;;8.80;99.90;;;;;;5044097;28;20023;-75
2022/04/06 04:27:19;;;;;;;10.43;2.38;;;8.80;99.90;;;;;;5047683;28;20024;-79
2022/04/06 04:29:51;;;;;;;8.93;2.47;;;8.80;99.90;;;;;;5068606;28;20032;-77
2022/04/06 04:32:18;;;;;;;9.13;3.10;;;8.80;99.90;;;;;;5049657;28;20031;-79
2022/04/06 04:34:44;;;;;;;14.07;2.72;;;8.80;99.90;;;;;;5036544;28;21701;-79
2022/04/06 04:37:10;;;;;;;8.02;2.30;;;8.80;99.90;;;;;;5050737;28;20048;-78
2022/04/06 04:39:37;;;;;;;14.05;2.83;;;8.80;99.90;;;;;;5050016;28;20040;-79
2022/04/06 04:42:04;;;;;;;12.25;3.45;;;8.80;99.90;;;;;;5080492;28;20028;-79
2022/04/06 04:44:34;;;;;;;9.30;2.50;;;8.80;99.90;;;;;;5014408;28;20055;-79
2022/04/06 04:47:01;;;;;;;9.73;2.40;;;8.80;99.90;;;;;;5081356;28;20027;-79
2022/04/06 04:49:28;;;;;;;7.93;1.95;;;8.80;99.90;;;;;;5080516;28;20028;-74
2022/04/06 04:51:54;;;;;;;8.63;1.60;;;8.80;99.90;;;;;;5042681;28;20032;-75
2022/04/06 04:54:24;;;;;;;16.15;2.88;;;8.80;99.90;;;;;;5025992;28;20031;-75
2022/04/06 04:56:52;;;;;;;14.02;4.85;;;8.80;99.90;;;;;;5027815;28;20028;-75
2022/04/06 04:59:19;;;;;;;11.07;2.83;;;8.80;99.90;;;;;;5061106;28;20035;-75
2022/04/06 05:01:45;;;;;;;8.45;2.75;;;8.80;99.90;;;;;;5059436;28;20021;-75
2022/04/06 05:04:11;;;;;;;15.20;3.08;;;8.80;99.90;;;;;;5044565;28;20061;-75
2022/04/06 05:06:38;;;;;;;8.48;2.38;;;8.80;99.90;;;;;;5059003;28;20028;-75
2022/04/06 05:09:04;;;;;;;10.80;2.50;;;8.80;99.90;;;;;;5029391;28;20024;-75
2022/04/06 05:11:31;;;;;;;8.57;2.00;;;8.80;99.90;;;;;;5027571;28;20038;-75
2022/04/06 05:13:57;;;;;;;10.55;2.90;;;8.70;99.90;;;;;;5043535;28;20376;-75
2022/04/06 05:16:24;;;;;;;9.80;2.50;;;8.80;99.90;;;;;;5039471;28;20043;-75
2022/04/06 05:18:52;;;;;;;9.93;2.17;;;8.80;99.90;;;;;;5047666;28;20479;-75
2022/04/06 05:21:19;;;;;;;12.50;2.42;;;8.80;99.90;;;;;;5030479;28;20027;-75
2022/04/06 05:23:45;;;;;;;10.77;3.20;;;8.80;99.90;;;;;;5059254;28;20048;-74
2022/04/06 05:26:12;;;;;;;11.88;2.67;;;8.80;99.90;;;;;;5040021;28;20036;-75
2022/04/06 05:28:39;;;;;;;11.40;3.28;;;8.80;99.90;;;;;;5043759;28;20032;-75
2022/04/06 05:31:05;;;;;;;11.48;2.67;;;8.80;99.90;;;;;;5030486;28;20028;-76
2022/04/06 05:33:32;;;;;;;9.95;2.70;;;8.80;99.90;;;;;;5058400;28;20581;-75
2022/04/06 05:35:58;;;;;;;12.10;4.28;;;8.80;99.90;;;;;;5041985;28;20031;-75
2022/04/06 05:38:25;;;;;;;15.70;3.63;;;8.80;99.90;;;;;;5014973;28;20513;-75
2022/04/06 05:40:52;;;;;;;10.20;2.53;;;8.90;99.90;;;;;;5027612;28;20036;-79
2022/04/06 05:43:19;;;;;;;10.70;3.15;;;8.90;99.90;;;;;;5078157;28;20024;-79
2022/04/06 05:45:45;;;;;;;12.80;3.97;;;8.90;99.90;;;;;;5061880;28;20050;-79
2022/04/06 05:48:11;;;;;;;10.73;3.30;;;8.90;99.90;;;;;;5027214;28;20463;-76
2022/04/06 05:50:38;;;;;;;9.35;3.40;;;8.90;99.90;;;;;;5061720;28;20016;-75
2022/04/06 05:53:05;;;;;;;9.40;3.10;;;8.90;99.90;;;;;;5057413;28;20055;-75
2022/04/06 05:55:31;;;;;;;12.82;4.22;;;9.00;99.90;;;;;;5011091;28;20368;-75
2022/04/06 05:57:58;;;;;;;10.98;3.42;;;9.00;99.90;;;;;;5042997;28;20031;-74
2022/04/06 06:00:24;;;;;;;8.80;3.28;;;9.00;99.90;;;;;;5061637;28;20599;-75
2022/04/06 06:02:51;;;;;;;10.73;3.28;;;9.00;99.90;;;;;;5011164;28;20035;-76
2022/04/06 06:05:17;;;;;;;14.55;3.20;;;9.00;99.90;;;;;;5028035;28;20024;-75
2022/04/06 06:07:44;;;;;;;8.57;2.40;;;9.00;99.90;;;;;;5025856;28;20153;-76
2022/04/06 06:10:12;;;;;;;11.52;2.50;;;9.10;99.90;;;;;;5045164;28;20023;-76
2022/04/06 06:12:38;;;;;;;10.57;3.42;;;9.10;99.90;;;;;;5026024;28;20016;-75
2022/04/06 06:15:06;;;;;;;10.80;3.22;;;9.10;99.90;;;;;;5027405;28;20024;-80
2022/04/06 06:17:41;;;;;;;15.63;3.65;;;9.20;99.90;;;;;;5045756;28;20487;-79
2022/04/06 06:20:10;;;;;;;14.90;4.20;;;9.20;99.90;;;;;;5062739;28;20039;-79
2022/04/06 06:22:38;;;;;;;12.15;3.40;;;9.20;99.90;;;;;;5056868;28;20052;-79
2022/04/06 06:25:05;;;;;;;14.50;4.40;;;9.20;99.90;;;;;;5016836;28;20055;-80
2022/04/06 06:27:42;;;;;;;15.45;4.07;;;9.30;99.90;;;;;;5047834;28;20033;-79
2022/04/06 06:30:12;;;;;;;13.40;3.50;;;9.30;99.90;;;;;;5005834;28;20020;-80
2022/04/06 06:32:39;;;;;;;10.05;3.38;;;9.30;99.90;;;;;;5051222;28;20463;-79
2022/04/06 06:35:08;;;;;;;16.45;4.10;;;9.40;99.90;;;;;;5058611;28;20037;-79
2022/04/06 06:37:35;;;;;;;11.57;4.50;;;9.40;99.90;;;;;;5044161;28;20024;-79
2022/04/06 06:40:02;;;;;;;11.35;4.00;;;9.40;99.90;;;;;;5060650;28;20033;-80
2022/04/06 06:42:28;;;;;;;15.50;4.57;;;9.50;99.90;;;;;;5007470;28;20024;-79
2022/04/06 06:44:55;;;;;;;13.73;4.45;;;9.50;99.90;;;;;;5038178;28;20403;-79
2022/04/06 06:47:21;;;;;;;10.70;4.45;;;9.50;99.90;;;;;;5037562;28;20025;-79
2022/04/06 06:49:48;;;;;;;17.65;4.55;;;9.50;99.90;;;;;;5041618;28;20044;-79
2022/04/06 06:52:14;;;;;;;13.30;4.50;;;9.50;99.90;;;;;;5037920;28;20055;-79
2022/04/06 06:54:41;;;;;;;21.00;5.70;;;9.50;99.90;;;;;;5032917;28;20383;-79
2022/04/06 06:57:11;;;;;;;14.52;5.28;;;9.50;99.90;;;;;;5022747;28;20035;-79
2022/04/06 06:59:38;;;;;;;18.33;5.25;;;9.60;99.90;;;;;;5024977;28;20468;-79
2022/04/06 07:02:05;;;;;;;17.02;4.65;;;9.60;99.90;;;;;;5013735;28;20507;-79
2022/04/06 07:04:31;;;;;;;14.68;5.00;;;9.60;99.90;;;;;;5037463;28;20035;-79
2022/04/06 07:06:59;;;;;;;12.75;3.80;;;9.60;99.90;;;;;;5038859;28;20375;-79
2022/04/06 07:09:27;;;;;;;13.52;4.35;;;9.60;99.90;;;;;;5039717;28;20036;-79
2022/04/06 07:11:54;;;;;;;12.27;4.55;;;9.60;99.90;;;;;;5055998;28;20612;-79
2022/04/06 07:14:20;;;;;;;16.45;4.05;;;9.60;99.90;;;;;;5039209;28;20036;-80
2022/04/06 07:16:47;;;;;;;14.18;3.75;;;9.70;99.90;;;;;;5021858;28;20044;-79
2022/04/06 07:19:13;;;;;;;15.43;3.33;;;9.70;99.90;;;;;;5007759;28;20372;-80
2022/04/06 07:21:39;;;;;;;10.18;3.00;;;9.70;99.90;;;;;;5037246;28;20036;-79
2022/04/06 07:24:06;;;;;;;12.25;3.13;;;9.80;99.90;;;;;;5039333;28;20036;-79
2022/04/06 07:26:32;;;;;;;12.73;3.15;;;9.80;99.90;;;;;;5022960;28;20032;-79
2022/04/06 07:28:59;;;;;;;11.60;3.80;;;9.80;99.90;;;;;;5039924;28;20025;-79
2022/04/06 07:31:26;;;;;;;13.23;2.70;;;9.80;99.90;;;;;;5025668;28;20480;-79
2022/04/06 07:33:52;;;;;;;9.70;2.20;;;9.90;99.90;;;;;;5020152;28;20036;-79
2022/04/06 07:36:19;;;;;;;9.23;1.90;;;9.90;99.90;;;;;;4993010;28;20029;-79
2022/04/06 07:38:45;;;;;;;9.38;1.88;;;9.90;99.90;;;;;;5040005;28;20037;-79
2022/04/06 07:41:12;;;;;;;9.00;2.03;;;10.00;99.90;;;;;;5044115;28;20530;-79
2022/04/06 07:43:38;;;;;;;13.95;2.30;;;9.90;99.90;;;;;;5024742;28;20028;-79
2022/04/06 07:46:07;;;;;;;7.25;1.83;;;10.00;99.90;;;;;;5009284;28;20044;-79
2022/04/06 07:48:34;;;;;;;8.05;1.23;;;10.00;99.90;;;;;;5019020;28;20051;-81
2022/04/06 07:51:00;;;;;;;7.90;1.52;;;10.00;99.90;;;;;;5028682;28;20391;-81
2022/04/06 07:53:30;;;;;;;6.07;1.30;;;10.00;99.90;;;;;;5025195;28;20036;-79
2022/04/06 07:55:56;;;;;;;6.43;1.20;;;10.00;99.90;;;;;;5025930;28;20052;-79
2022/04/06 07:58:24;;;;;;;10.52;1.52;;;10.10;99.90;;;;;;5027522;28;20404;-79
2022/04/06 08:00:50;;;;;;;8.05;1.38;;;10.10;99.90;;;;;;4996206;28;20610;-79
2022/04/06 08:03:17;;;;;;;6.10;1.02;;;10.20;99.90;;;;;;5023463;28;20045;-79
2022/04/06 08:05:43;;;;;;;5.55;1.35;;;10.20;99.90;;;;;;5033410;28;20013;-79
2022/04/06 08:08:09;;;;;;;4.18;0.77;;;10.30;99.90;;;;;;5034418;28;20035;-79
2022/04/06 08:10:36;;;;;;;7.20;1.45;;;10.40;99.90;;;;;;5043631;28;20028;-75
2022/04/06 08:13:02;;;;;;;11.30;1.55;;;10.40;99.90;;;;;;5022748;28;20028;-76
2022/04/06 08:15:29;;;;;;;8.40;1.00;;;10.50;99.90;;;;;;4994804;28;20043;-76
2022/04/06 08:17:58;;;;;;;7.63;0.82;;;10.50;99.90;;;;;;5009584;28;20036;-76
2022/04/06 08:20:26;;;;;;;7.05;1.00;;;10.60;99.90;;;;;;5042639;28;20040;-77
2022/04/06 08:22:53;;;;;;;9.35;1.95;;;10.60;99.90;;;;;;5007151;28;20048;-80
2022/04/06 08:25:19;;;;;;;9.07;1.02;;;10.70;99.90;;;;;;5042123;28;20036;-81
2022/04/06 08:27:46;;;;;;;5.40;1.13;;;10.70;99.90;;;;;;5025434;28;20021;-77
2022/04/06 08:30:13;;;;;;;6.32;1.40;;;10.80;99.90;;;;;;5041216;28;20024;-77
2022/04/06 08:32:39;;;;;;;4.75;0.90;;;10.90;99.90;;;;;;5040652;28;20036;-77
2022/04/06 08:35:08;;;;;;;7.57;0.95;;;10.80;99.90;;;;;;5040042;28;20021;-77
2022/04/06 08:37:39;;;;;;;7.85;0.93;;;10.80;99.90;;;;;;5026312;28;20041;-80
2022/04/06 08:40:10;;;;;;;8.88;1.40;;;10.70;99.90;;;;;;5046394;28;20051;-80
2022/04/06 08:42:37;;;;;;;7.03;1.25;;;10.60;99.90;;;;;;5064048;28;20055;-81
2022/04/06 08:45:05;;;;;;;5.15;1.10;;;10.70;99.90;;;;;;5030539;28;22736;-81
2022/04/06 08:47:33;;;;;;;9.82;1.30;;;10.60;99.90;;;;;;5065523;28;20036;-81
2022/04/06 08:50:04;;;;;;;6.18;1.20;;;10.70;99.90;;;;;;5014907;28;20468;-81
2022/04/06 08:52:35;;;;;;;7.57;1.45;;;10.70;99.90;;;;;;5046418;28;20383;-81
2022/04/06 08:55:02;;;;;;;12.05;2.60;;;10.80;99.90;;;;;;5045047;28;20064;-80
2022/04/06 08:57:28;;;;;;;12.38;2.92;;;10.80;99.90;;;;;;5017697;28;20693;-81
2022/04/06 08:59:55;;;;;;;6.63;1.27;;;10.80;99.90;;;;;;5044915;28;20037;-82
2022/04/06 09:02:23;;;;;;;9.52;2.03;;;10.80;99.90;;;;;;5024383;28;20040;-79
2022/04/06 09:04:54;;;;;;;10.27;2.08;;;10.80;99.90;;;;;;5007882;28;20930;-79
2022/04/06 09:07:22;;;;;;;11.15;2.33;;;10.90;99.90;;;;;;5025739;28;20055;-82
2022/04/06 09:09:51;;;;;;;6.97;2.45;;;10.80;99.90;;;;;;5041746;28;20376;-80
2022/04/06 09:12:19;;;;;;;6.72;2.05;;;10.80;99.90;;;;;;5023921;28;20039;-80
2022/04/06 09:14:47;;;;;;;7.97;1.77;;;10.80;99.90;;;;;;5024615;28;20027;-79
2022/04/06 09:17:21;;;;;;;16.17;2.50;;;10.80;99.90;;;;;;5041093;28;20036;-80
2022/04/06 09:19:49;;;;;;;7.95;2.28;;;10.90;99.90;;;;;;5041028;28;20376;-80
2022/04/06 09:22:16;;;;;;;13.75;2.75;;;10.90;99.90;;;;;;5023437;28;20033;-79
2022/04/06 09:24:43;;;;;;;7.93;2.30;;;10.90;99.90;;;;;;5023228;28;20037;-79
2022/04/06 09:27:09;;;;;;;10.75;3.20;;;10.90;99.90;;;;;;5022605;28;20032;-77
2022/04/06 09:29:36;;;;;;;7.65;3.20;;;10.80;99.90;;;;;;5025131;28;20400;-79
2022/04/06 09:32:10;;;;;;;5.95;2.53;;;10.70;99.90;;;;;;5038758;28;20031;-80
2022/04/06 09:34:41;;;;;;;9.15;2.92;;;10.60;99.90;;;;;;5021137;28;20025;-79
2022/04/06 09:37:33;;;;;;;9.23;3.10;;;10.50;99.90;;;;;;5056455;28;20396;-80
2022/04/06 09:40:08;;;;;;;8.85;3.35;;;10.40;99.90;;;;;;5022607;28;20052;-80
2022/04/06 09:42:35;;;;;;;11.75;4.13;;;10.30;99.90;;;;;;5025452;28;20067;-79
2022/04/06 09:47:53;;;;;;;9.68;3.60;;;10.30;99.90;;;;;;5025363;28;20480;-78
2022/04/06 09:50:22;;;;;;;12.55;3.97;;;10.30;99.90;;;;;;5058642;28;20040;-80
2022/04/06 09:52:54;;;;;;;8.63;3.30;;;10.30;99.90;;;;;;5016056;28;20020;-79
2022/04/06 09:55:23;;;;;;;11.55;4.85;;;10.30;99.90;;;;;;5039018;28;20858;-76
2022/04/06 09:57:52;;;;;;;16.38;4.88;;;10.30;99.90;;;;;;5034610;28;20029;-77
2022/04/06 10:00:21;;;;;;;11.85;4.93;;;10.30;99.90;;;;;;5020748;28;20478;-77
2022/04/06 10:02:54;;;;;;;8.65;5.03;;;10.30;99.90;;;;;;5053804;28;21529;-77
2022/04/06 10:05:22;;;;;;;15.60;5.65;;;10.30;99.90;;;;;;5038340;28;20021;-76
2022/04/06 10:07:52;;;;;;;12.68;5.03;;;10.30;99.90;;;;;;5021438;28;20028;-76
2022/04/06 10:10:23;;;;;;;12.68;5.53;;;10.30;99.90;;;;;;5007175;28;20034;-76
2022/04/06 10:12:50;;;;;;;12.43;5.20;;;10.30;99.90;;;;;;5034288;28;20039;-76
2022/04/06 10:15:18;;;;;;;10.80;6.03;;;10.30;99.90;;;;;;5006849;28;20025;-76
2022/04/06 10:17:44;;;;;;;9.85;5.05;;;10.30;99.90;;;;;;5052841;28;20055;-77
2022/04/06 10:20:31;;;;;;;10.50;5.28;;;10.20;99.90;;;;;;5006686;28;20036;-77
2022/04/06 10:23:17;;;;;;;15.63;7.50;;;10.20;99.90;;;;;;5035481;28;20396;-76
2022/04/06 10:26:01;;;;;;;10.70;5.53;;;10.20;99.90;;;;;;5022309;28;20469;-76
2022/04/06 10:28:33;;;;;;;13.63;5.57;;;10.10;99.90;;;;;;5057185;28;20024;-74
2022/04/06 10:31:11;;;;;;;14.80;7.05;;;10.00;99.90;;;;;;5039393;28;20027;-74
2022/04/06 10:33:39;;;;;;;17.23;7.05;;;10.00;99.90;;;;;;5053065;28;20024;-74
2022/04/06 10:36:30;;;;;;;10.90;5.95;;;10.00;99.90;;;;;;5038305;28;20408;-74
2022/04/06 10:39:09;;;;;;;12.27;6.28;;;9.90;99.90;;;;;;5039367;28;21028;-74
2022/04/06 10:41:39;;;;;;;17.70;7.15;;;9.90;99.90;;;;;;5036743;28;21003;-74
2022/04/06 10:44:06;;;;;;;11.48;6.38;;;10.00;99.90;;;;;;5056657;28;20021;-73
2022/04/06 10:46:40;;;;;;;14.55;7.50;;;10.00;99.90;;;;;;5037382;28;20099;-74
2022/04/06 10:49:06;;;;;;;11.07;6.20;;;10.00;99.90;;;;;;5038837;28;20021;-73
2022/04/06 10:51:38;;;;;;;10.07;5.85;;;10.10;99.90;;;;;;5027931;28;20027;-74
2022/04/06 10:54:13;;;;;;;21.50;8.70;;;10.10;99.90;;;;;;5036231;28;20037;-76
2022/04/06 10:56:52;;;;;;;13.02;7.88;;;10.10;99.90;;;;;;5046160;28;20021;-77
2022/04/06 10:59:20;;;;;;;13.10;7.68;;;10.10;99.90;;;;;;5043500;28;20027;-79
2022/04/06 11:01:48;;;;;;;17.15;8.82;;;10.10;99.90;;;;;;5032600;28;20047;-79
2022/04/06 11:04:22;;;;;;;12.80;7.90;;;10.10;99.90;;;;;;5033972;28;20040;-76
2022/04/06 11:06:57;;;;;;;12.88;7.15;;;10.10;99.90;;;;;;5001339;28;20028;-77
2022/04/06 11:12:30;;;;;;;10.25;7.40;;;10.10;99.90;;;;;;5017965;28;20028;-76
2022/04/06 11:15:00;;;;;;;12.32;8.05;;;10.00;99.90;;;;;;5004320;28;20338;-78
2022/04/06 11:17:37;;;;;;;14.30;7.05;;;10.10;99.90;;;;;;5019543;28;20498;-74
2022/04/06 11:20:10;;;;;;;13.55;6.95;;;10.00;99.90;;;;;;5044984;28;20368;-74
2022/04/06 11:22:53;;;;;;;13.02;7.72;;;10.00;99.90;;;;;;5043063;28;20043;-74
2022/04/06 11:25:22;;;;;;;12.20;7.18;;;10.00;99.90;;;;;;5052225;28;20020;-75
2022/04/06 11:27:49;;;;;;;15.38;6.82;;;10.10;99.90;;;;;;5034165;28;20048;-74
2022/04/06 11:30:23;;;;;;;10.70;6.78;;;10.20;99.90;;;;;;5007100;28;20028;-74
2022/04/06 11:32:51;;;;;;;11.27;7.03;;;10.30;99.90;;;;;;5034271;28;20487;-74
2022/04/06 11:35:17;;;;;;;13.50;6.85;;;10.40;99.90;;;;;;5053275;28;20582;-74
2022/04/06 11:37:46;;;;;;;12.00;7.50;;;10.40;99.90;;;;;;5054812;28;20023;-74
2022/04/06 11:40:18;;;;;;;11.32;7.40;;;10.40;99.90;;;;;;5036823;28;20492;-75
2022/04/06 11:42:52;;;;;;;13.60;8.07;;;10.40;99.90;;;;;;5021515;28;20029;-75
2022/04/06 11:45:23;;;;;;;9.60;6.90;;;10.50;99.90;;;;;;5006785;28;20499;-75
2022/04/06 11:47:57;;;;;;;12.48;6.88;;;10.60;99.90;;;;;;5035315;28;20039;-75
2022/04/06 11:50:32;;;;;;;10.23;5.97;;;10.60;99.90;;;;;;5020739;28;20474;-76
2022/04/06 11:53:28;;;;;;;12.95;6.40;;;10.60;99.90;;;;;;5001167;28;20504;-76
2022/04/06 11:55:55;;;;;;;10.95;6.32;;;10.60;99.90;;;;;;5001386;28;20036;-73
2022/04/06 11:58:36;;;;;;;9.20;5.70;;;10.60;99.90;;;;;;5002185;28;20058;-76
2022/04/06 12:01:21;;;;;;;15.20;6.00;;;10.60;99.90;;;;;;5037352;28;20042;-76
2022/04/06 12:03:47;;;;;;;9.23;5.13;;;10.50;99.90;;;;;;5031073;28;20087;-76
2022/04/06 12:06:15;;;;;;;9.13;5.28;;;10.50;99.90;;;;;;5020962;28;20039;-75
2022/04/06 12:08:44;;;;;;;12.65;5.72;;;10.60;99.90;;;;;;5044189;28;20012;-75
2022/04/06 12:11:10;;;;;;;9.18;5.47;;;10.50;99.90;;;;;;5013371;28;20025;-75
2022/04/06 12:13:39;;;;;;;12.27;5.50;;;10.60;99.90;;;;;;5014014;28;20480;-74
2022/04/06 12:16:06;;;;;;;11.82;5.35;;;10.60;99.90;;;;;;5046725;28;20028;-74
2022/04/06 12:18:37;;;;;;;9.55;5.63;;;10.60;99.90;;;;;;5054665;28;20372;-74
2022/04/06 12:21:28;;;;;;;11.02;6.07;;;10.60;99.90;;;;;;5022556;28;20498;-76
2022/04/06 12:23:57;;;;;;;10.75;5.20;;;10.70;99.90;;;;;;5017931;28;20049;-76
2022/04/06 12:26:25;;;;;;;11.77;5.68;;;10.80;99.90;;;;;;5033956;28;20037;-74
2022/04/06 12:29:00;;;;;;;9.23;5.55;;;10.80;99.90;;;;;;5060315;28;20012;-74
2022/04/06 12:31:38;;;;;;;18.67;5.18;;;10.90;99.90;;;;;;5024246;28;20493;-74
2022/04/06 12:34:10;;;;;;;10.27;4.95;;;10.90;99.90;;;;;;5023592;28;20035;-74
2022/04/06 12:36:37;;;;;;;8.00;4.65;;;10.90;99.90;;;;;;5006859;28;20035;-76
2022/04/06 12:39:13;;;;;;;7.20;4.32;;;10.90;99.90;;;;;;5009697;28;20039;-76
2022/04/06 12:42:02;;;;;;;7.50;4.28;;;11.00;99.90;;;;;;5024682;28;20383;-76
2022/04/06 12:44:30;;;;;;;8.32;4.43;;;11.10;99.90;;;;;;5007621;28;20039;-74
2022/04/06 12:46:57;;;;;;;10.15;4.38;;;11.10;99.90;;;;;;5023422;28;20381;-74
2022/04/06 12:49:31;;;;;;;8.68;4.43;;;11.10;99.90;;;;;;5038977;28;20027;-74
2022/04/06 12:52:13;;;;;;;13.82;3.97;;;11.10;99.90;;;;;;5037256;28;20244;-76
2022/04/06 12:55:16;;;;;;;8.02;4.13;;;11.10;99.90;;;;;;5040636;28;20024;-74
2022/04/06 12:57:43;;;;;;;8.27;3.13;;;11.20;99.90;;;;;;5037034;28;20110;-74
2022/04/06 13:00:21;;;;;;;11.48;3.85;;;11.20;99.90;;;;;;5008928;28;20044;-74
2022/04/06 13:02:52;;;;;;;8.35;3.35;;;11.20;99.90;;;;;;5018303;28;20047;-74